sensor_id;sensor_type;location;lat;lon;timestamp;P1;durP1;ratioP1;P2;durP2;ratioP2
59052;SDS011;44843;44.728;10.396;2023-07-20T00:00:33;4.13;;;2.50;;
59052;SDS011;44843;44.728;10.396;2023-07-20T00:03:13;14.48;;;3.13;;
59052;SDS011;44843;44.728;10.396;2023-07-20T00:05:44;7.97;;;3.17;;
59052;SDS011;44843;44.728;10.396;2023-07-20T00:08:10;9.27;;;3.33;;
59052;SDS011;44843;44.728;10.396;2023-07-20T00:10:36;6.05;;;2.60;;
59052;SDS011;44843;44.728;10.396;2023-07-20T00:13:01;11.15;;;3.38;;
59052;SDS011;44843;44.728;10.396;2023-07-20T00:15:27;9.68;;;2.97;;
59052;SDS011;44843;44.728;10.396;2023-07-20T00:17:53;10.10;;;3.40;;
59052;SDS011;44843;44.728;10.396;2023-07-20T00:20:18;7.28;;;2.90;;
59052;SDS011;44843;44.728;10.396;2023-07-20T00:22:43;8.95;;;3.00;;
59052;SDS011;44843;44.728;10.396;2023-07-20T00:25:10;9.73;;;2.88;;
59052;SDS011;44843;44.728;10.396;2023-07-20T00:27:36;6.15;;;2.47;;
59052;SDS011;44843;44.728;10.396;2023-07-20T00:30:03;6.68;;;2.50;;
59052;SDS011;44843;44.728;10.396;2023-07-20T00:32:29;6.38;;;2.38;;
59052;SDS011;44843;44.728;10.396;2023-07-20T00:34:54;7.13;;;2.83;;
59052;SDS011;44843;44.728;10.396;2023-07-20T00:37:20;10.38;;;2.83;;
59052;SDS011;44843;44.728;10.396;2023-07-20T00:39:45;12.60;;;2.40;;
59052;SDS011;44843;44.728;10.396;2023-07-20T00:42:11;6.57;;;2.42;;
59052;SDS011;44843;44.728;10.396;2023-07-20T00:44:36;5.40;;;2.80;;
59052;SDS011;44843;44.728;10.396;2023-07-20T00:47:01;3.72;;;2.67;;
59052;SDS011;44843;44.728;10.396;2023-07-20T00:49:27;5.45;;;2.50;;
59052;SDS011;44843;44.728;10.396;2023-07-20T00:51:52;8.15;;;2.63;;
59052;SDS011;44843;44.728;10.396;2023-07-20T00:54:18;3.75;;;2.58;;
59052;SDS011;44843;44.728;10.396;2023-07-20T00:56:43;7.05;;;3.38;;
59052;SDS011;44843;44.728;10.396;2023-07-20T00:59:09;7.57;;;2.83;;
59052;SDS011;44843;44.728;10.396;2023-07-20T01:01:35;4.50;;;2.15;;
59052;SDS011;44843;44.728;10.396;2023-07-20T01:04:01;8.18;;;2.65;;
59052;SDS011;44843;44.728;10.396;2023-07-20T01:06:31;4.95;;;2.70;;
59052;SDS011;44843;44.728;10.396;2023-07-20T01:09:24;4.95;;;2.25;;
59052;SDS011;44843;44.728;10.396;2023-07-20T01:12:00;6.22;;;2.20;;
59052;SDS011;44843;44.728;10.396;2023-07-20T01:14:32;5.85;;;2.28;;
59052;SDS011;44843;44.728;10.396;2023-07-20T01:16:59;6.55;;;2.65;;
59052;SDS011;44843;44.728;10.396;2023-07-20T01:19:24;9.85;;;2.83;;
59052;SDS011;44843;44.728;10.396;2023-07-20T01:21:54;4.80;;;2.47;;
59052;SDS011;44843;44.728;10.396;2023-07-20T01:32:46;4.43;;;2.40;;
59052;SDS011;44843;44.728;10.396;2023-07-20T01:35:13;3.60;;;2.47;;
59052;SDS011;44843;44.728;10.396;2023-07-20T01:37:42;6.70;;;2.63;;
59052;SDS011;44843;44.728;10.396;2023-07-20T01:40:10;4.80;;;2.20;;
59052;SDS011;44843;44.728;10.396;2023-07-20T01:42:36;9.15;;;3.45;;
59052;SDS011;44843;44.728;10.396;2023-07-20T01:45:02;5.75;;;2.70;;
59052;SDS011;44843;44.728;10.396;2023-07-20T01:47:27;7.05;;;2.95;;
59052;SDS011;44843;44.728;10.396;2023-07-20T01:49:53;6.60;;;2.45;;
59052;SDS011;44843;44.728;10.396;2023-07-20T01:52:18;6.22;;;3.13;;
59052;SDS011;44843;44.728;10.396;2023-07-20T01:54:43;7.38;;;3.03;;
59052;SDS011;44843;44.728;10.396;2023-07-20T01:57:09;7.53;;;2.40;;
59052;SDS011;44843;44.728;10.396;2023-07-20T01:59:34;7.95;;;2.58;;
59052;SDS011;44843;44.728;10.396;2023-07-20T02:01:59;3.55;;;2.63;;
59052;SDS011;44843;44.728;10.396;2023-07-20T02:04:25;6.57;;;2.33;;
59052;SDS011;44843;44.728;10.396;2023-07-20T02:06:50;9.95;;;3.38;;
59052;SDS011;44843;44.728;10.396;2023-07-20T02:09:15;9.95;;;3.50;;
59052;SDS011;44843;44.728;10.396;2023-07-20T02:11:41;6.88;;;2.97;;
59052;SDS011;44843;44.728;10.396;2023-07-20T02:14:06;5.50;;;2.95;;
59052;SDS011;44843;44.728;10.396;2023-07-20T02:16:31;6.05;;;2.63;;
59052;SDS011;44843;44.728;10.396;2023-07-20T02:18:57;8.20;;;3.40;;
59052;SDS011;44843;44.728;10.396;2023-07-20T02:21:23;6.97;;;3.28;;
59052;SDS011;44843;44.728;10.396;2023-07-20T02:23:48;6.70;;;3.95;;
59052;SDS011;44843;44.728;10.396;2023-07-20T02:26:14;6.55;;;3.40;;
59052;SDS011;44843;44.728;10.396;2023-07-20T02:28:40;8.25;;;3.42;;
59052;SDS011;44843;44.728;10.396;2023-07-20T02:31:06;7.15;;;3.63;;
59052;SDS011;44843;44.728;10.396;2023-07-20T02:33:31;6.53;;;3.65;;
59052;SDS011;44843;44.728;10.396;2023-07-20T02:35:57;5.15;;;3.08;;
59052;SDS011;44843;44.728;10.396;2023-07-20T02:38:22;8.15;;;4.50;;
59052;SDS011;44843;44.728;10.396;2023-07-20T02:40:47;8.25;;;3.08;;
59052;SDS011;44843;44.728;10.396;2023-07-20T02:43:13;7.40;;;3.42;;
59052;SDS011;44843;44.728;10.396;2023-07-20T02:45:41;6.57;;;3.25;;
59052;SDS011;44843;44.728;10.396;2023-07-20T02:48:09;6.22;;;3.90;;
59052;SDS011;44843;44.728;10.396;2023-07-20T02:50:35;5.80;;;3.17;;
59052;SDS011;44843;44.728;10.396;2023-07-20T02:53:01;6.90;;;2.90;;
59052;SDS011;44843;44.728;10.396;2023-07-20T02:55:27;6.78;;;3.78;;
59052;SDS011;44843;44.728;10.396;2023-07-20T02:57:52;5.22;;;3.20;;
59052;SDS011;44843;44.728;10.396;2023-07-20T03:00:18;5.45;;;3.05;;
59052;SDS011;44843;44.728;10.396;2023-07-20T03:02:44;10.43;;;3.72;;
59052;SDS011;44843;44.728;10.396;2023-07-20T03:05:14;7.65;;;3.60;;
59052;SDS011;44843;44.728;10.396;2023-07-20T03:07:39;6.93;;;3.35;;
59052;SDS011;44843;44.728;10.396;2023-07-20T03:10:05;10.23;;;4.10;;
59052;SDS011;44843;44.728;10.396;2023-07-20T03:12:34;7.35;;;3.80;;
59052;SDS011;44843;44.728;10.396;2023-07-20T03:15:01;7.25;;;3.53;;
59052;SDS011;44843;44.728;10.396;2023-07-20T03:17:27;12.25;;;4.18;;
59052;SDS011;44843;44.728;10.396;2023-07-20T03:19:52;5.05;;;3.63;;
59052;SDS011;44843;44.728;10.396;2023-07-20T03:22:17;7.78;;;3.40;;
59052;SDS011;44843;44.728;10.396;2023-07-20T03:24:43;6.72;;;3.95;;
59052;SDS011;44843;44.728;10.396;2023-07-20T03:27:08;8.93;;;3.95;;
59052;SDS011;44843;44.728;10.396;2023-07-20T03:29:34;6.00;;;3.80;;
59052;SDS011;44843;44.728;10.396;2023-07-20T03:31:59;6.22;;;3.30;;
59052;SDS011;44843;44.728;10.396;2023-07-20T03:34:25;7.60;;;3.47;;
59052;SDS011;44843;44.728;10.396;2023-07-20T03:36:50;9.48;;;3.45;;
59052;SDS011;44843;44.728;10.396;2023-07-20T03:39:16;4.97;;;2.70;;
59052;SDS011;44843;44.728;10.396;2023-07-20T03:41:41;6.38;;;2.95;;
59052;SDS011;44843;44.728;10.396;2023-07-20T03:44:08;6.40;;;3.35;;
59052;SDS011;44843;44.728;10.396;2023-07-20T03:46:33;9.90;;;3.75;;
59052;SDS011;44843;44.728;10.396;2023-07-20T03:48:59;7.93;;;3.30;;
59052;SDS011;44843;44.728;10.396;2023-07-20T03:51:24;9.23;;;3.10;;
59052;SDS011;44843;44.728;10.396;2023-07-20T03:53:50;5.15;;;2.90;;
59052;SDS011;44843;44.728;10.396;2023-07-20T03:56:16;6.63;;;3.33;;
59052;SDS011;44843;44.728;10.396;2023-07-20T03:58:41;7.93;;;3.30;;
59052;SDS011;44843;44.728;10.396;2023-07-20T04:01:06;4.22;;;2.70;;
59052;SDS011;44843;44.728;10.396;2023-07-20T04:03:32;5.93;;;2.95;;
59052;SDS011;44843;44.728;10.396;2023-07-20T04:05:57;7.00;;;3.25;;
59052;SDS011;44843;44.728;10.396;2023-07-20T04:08:23;5.13;;;2.78;;
59052;SDS011;44843;44.728;10.396;2023-07-20T04:10:49;5.25;;;3.08;;
59052;SDS011;44843;44.728;10.396;2023-07-20T04:13:15;6.93;;;3.40;;
59052;SDS011;44843;44.728;10.396;2023-07-20T04:15:41;7.25;;;3.15;;
59052;SDS011;44843;44.728;10.396;2023-07-20T04:18:07;10.27;;;3.80;;
59052;SDS011;44843;44.728;10.396;2023-07-20T04:20:32;9.13;;;2.50;;
59052;SDS011;44843;44.728;10.396;2023-07-20T04:22:58;11.07;;;3.10;;
59052;SDS011;44843;44.728;10.396;2023-07-20T04:25:23;8.75;;;2.85;;
59052;SDS011;44843;44.728;10.396;2023-07-20T04:27:48;7.20;;;3.05;;
59052;SDS011;44843;44.728;10.396;2023-07-20T04:30:16;6.18;;;2.75;;
59052;SDS011;44843;44.728;10.396;2023-07-20T04:32:44;6.72;;;2.78;;
59052;SDS011;44843;44.728;10.396;2023-07-20T04:35:10;8.68;;;3.28;;
59052;SDS011;44843;44.728;10.396;2023-07-20T04:37:36;9.07;;;3.50;;
59052;SDS011;44843;44.728;10.396;2023-07-20T04:40:01;6.35;;;2.95;;
59052;SDS011;44843;44.728;10.396;2023-07-20T04:42:28;8.43;;;3.35;;
59052;SDS011;44843;44.728;10.396;2023-07-20T04:44:53;5.40;;;3.38;;
59052;SDS011;44843;44.728;10.396;2023-07-20T04:47:19;6.78;;;3.10;;
59052;SDS011;44843;44.728;10.396;2023-07-20T04:49:44;8.80;;;3.28;;
59052;SDS011;44843;44.728;10.396;2023-07-20T04:52:09;5.95;;;3.30;;
59052;SDS011;44843;44.728;10.396;2023-07-20T04:54:35;5.90;;;3.38;;
59052;SDS011;44843;44.728;10.396;2023-07-20T04:57:00;7.30;;;3.38;;
59052;SDS011;44843;44.728;10.396;2023-07-20T04:59:26;7.32;;;3.13;;
59052;SDS011;44843;44.728;10.396;2023-07-20T05:01:51;5.03;;;2.85;;
59052;SDS011;44843;44.728;10.396;2023-07-20T05:04:17;5.78;;;3.05;;
59052;SDS011;44843;44.728;10.396;2023-07-20T05:06:43;5.97;;;2.92;;
59052;SDS011;44843;44.728;10.396;2023-07-20T05:09:08;8.20;;;3.85;;
59052;SDS011;44843;44.728;10.396;2023-07-20T05:11:34;9.27;;;3.28;;
59052;SDS011;44843;44.728;10.396;2023-07-20T05:13:59;7.18;;;3.38;;
59052;SDS011;44843;44.728;10.396;2023-07-20T05:16:25;7.47;;;3.05;;
59052;SDS011;44843;44.728;10.396;2023-07-20T05:18:50;5.07;;;3.10;;
59052;SDS011;44843;44.728;10.396;2023-07-20T05:21:16;6.00;;;3.22;;
59052;SDS011;44843;44.728;10.396;2023-07-20T05:23:41;5.63;;;2.80;;
59052;SDS011;44843;44.728;10.396;2023-07-20T05:26:08;6.03;;;2.80;;
59052;SDS011;44843;44.728;10.396;2023-07-20T05:28:34;7.30;;;3.80;;
59052;SDS011;44843;44.728;10.396;2023-07-20T05:31:01;7.80;;;3.08;;
59052;SDS011;44843;44.728;10.396;2023-07-20T05:33:28;5.65;;;3.33;;
59052;SDS011;44843;44.728;10.396;2023-07-20T05:35:53;5.95;;;3.45;;
59052;SDS011;44843;44.728;10.396;2023-07-20T05:38:18;6.32;;;3.20;;
59052;SDS011;44843;44.728;10.396;2023-07-20T05:40:44;8.52;;;3.05;;
59052;SDS011;44843;44.728;10.396;2023-07-20T05:43:10;8.27;;;3.63;;
59052;SDS011;44843;44.728;10.396;2023-07-20T05:48:02;5.55;;;3.05;;
59052;SDS011;44843;44.728;10.396;2023-07-20T05:50:27;7.37;;;3.73;;
59052;SDS011;44843;44.728;10.396;2023-07-20T05:52:53;6.50;;;3.35;;
59052;SDS011;44843;44.728;10.396;2023-07-20T05:55:19;5.07;;;2.92;;
59052;SDS011;44843;44.728;10.396;2023-07-20T05:57:44;10.23;;;3.95;;
59052;SDS011;44843;44.728;10.396;2023-07-20T06:00:09;11.20;;;3.53;;
59052;SDS011;44843;44.728;10.396;2023-07-20T06:02:37;9.80;;;4.20;;
59052;SDS011;44843;44.728;10.396;2023-07-20T06:05:02;5.95;;;3.50;;
59052;SDS011;44843;44.728;10.396;2023-07-20T06:07:28;8.15;;;3.67;;
59052;SDS011;44843;44.728;10.396;2023-07-20T06:14:44;10.97;;;4.13;;
59052;SDS011;44843;44.728;10.396;2023-07-20T06:17:09;7.80;;;3.38;;
59052;SDS011;44843;44.728;10.396;2023-07-20T06:19:35;4.85;;;3.30;;
59052;SDS011;44843;44.728;10.396;2023-07-20T06:22:00;8.20;;;4.00;;
59052;SDS011;44843;44.728;10.396;2023-07-20T06:24:26;21.67;;;5.22;;
59052;SDS011;44843;44.728;10.396;2023-07-20T06:26:51;11.85;;;4.05;;
59052;SDS011;44843;44.728;10.396;2023-07-20T06:29:17;9.57;;;4.07;;
59052;SDS011;44843;44.728;10.396;2023-07-20T06:34:08;9.87;;;4.40;;
59052;SDS011;44843;44.728;10.396;2023-07-20T06:36:33;6.85;;;4.45;;
59052;SDS011;44843;44.728;10.396;2023-07-20T06:38:58;6.53;;;4.03;;
59052;SDS011;44843;44.728;10.396;2023-07-20T06:41:24;9.32;;;4.32;;
59052;SDS011;44843;44.728;10.396;2023-07-20T06:43:49;7.60;;;3.90;;
59052;SDS011;44843;44.728;10.396;2023-07-20T06:46:15;9.20;;;4.68;;
59052;SDS011;44843;44.728;10.396;2023-07-20T06:48:40;8.20;;;4.45;;
59052;SDS011;44843;44.728;10.396;2023-07-20T06:51:05;6.90;;;4.10;;
59052;SDS011;44843;44.728;10.396;2023-07-20T06:53:31;4.78;;;3.70;;
59052;SDS011;44843;44.728;10.396;2023-07-20T06:55:56;9.70;;;3.75;;
59052;SDS011;44843;44.728;10.396;2023-07-20T06:58:23;8.50;;;4.38;;
59052;SDS011;44843;44.728;10.396;2023-07-20T07:00:49;10.52;;;3.63;;
59052;SDS011;44843;44.728;10.396;2023-07-20T07:03:14;9.77;;;4.28;;
59052;SDS011;44843;44.728;10.396;2023-07-20T07:05:40;10.20;;;4.20;;
59052;SDS011;44843;44.728;10.396;2023-07-20T07:08:05;6.18;;;4.45;;
59052;SDS011;44843;44.728;10.396;2023-07-20T07:10:31;8.60;;;4.30;;
59052;SDS011;44843;44.728;10.396;2023-07-20T07:12:56;8.73;;;5.10;;
59052;SDS011;44843;44.728;10.396;2023-07-20T07:15:21;6.18;;;3.75;;
59052;SDS011;44843;44.728;10.396;2023-07-20T07:17:47;6.75;;;4.38;;
59052;SDS011;44843;44.728;10.396;2023-07-20T07:20:13;9.40;;;4.15;;
59052;SDS011;44843;44.728;10.396;2023-07-20T07:22:38;9.88;;;5.07;;
59052;SDS011;44843;44.728;10.396;2023-07-20T07:25:03;10.43;;;4.30;;
59052;SDS011;44843;44.728;10.396;2023-07-20T07:27:29;8.15;;;4.00;;
59052;SDS011;44843;44.728;10.396;2023-07-20T07:29:55;8.20;;;4.10;;
59052;SDS011;44843;44.728;10.396;2023-07-20T07:32:20;7.95;;;4.45;;
59052;SDS011;44843;44.728;10.396;2023-07-20T07:34:46;8.10;;;4.65;;
59052;SDS011;44843;44.728;10.396;2023-07-20T07:37:12;11.57;;;3.90;;
59052;SDS011;44843;44.728;10.396;2023-07-20T07:39:38;14.73;;;4.57;;
59052;SDS011;44843;44.728;10.396;2023-07-20T07:42:04;9.98;;;4.43;;
59052;SDS011;44843;44.728;10.396;2023-07-20T07:44:30;9.18;;;4.13;;
59052;SDS011;44843;44.728;10.396;2023-07-20T07:46:56;10.38;;;4.38;;
59052;SDS011;44843;44.728;10.396;2023-07-20T07:49:21;11.98;;;4.75;;
59052;SDS011;44843;44.728;10.396;2023-07-20T07:51:46;8.38;;;4.57;;
59052;SDS011;44843;44.728;10.396;2023-07-20T07:54:12;12.05;;;4.63;;
59052;SDS011;44843;44.728;10.396;2023-07-20T07:56:37;10.23;;;4.30;;
59052;SDS011;44843;44.728;10.396;2023-07-20T07:59:03;7.55;;;4.57;;
59052;SDS011;44843;44.728;10.396;2023-07-20T08:01:28;12.27;;;3.88;;
59052;SDS011;44843;44.728;10.396;2023-07-20T08:03:54;8.65;;;3.83;;
59052;SDS011;44843;44.728;10.396;2023-07-20T08:06:19;9.93;;;3.90;;
59052;SDS011;44843;44.728;10.396;2023-07-20T08:08:44;8.02;;;4.15;;
59052;SDS011;44843;44.728;10.396;2023-07-20T08:11:10;6.82;;;3.75;;
59052;SDS011;44843;44.728;10.396;2023-07-20T08:13:35;11.35;;;4.68;;
59052;SDS011;44843;44.728;10.396;2023-07-20T08:16:01;10.15;;;4.53;;
59052;SDS011;44843;44.728;10.396;2023-07-20T08:18:29;6.50;;;4.07;;
59052;SDS011;44843;44.728;10.396;2023-07-20T08:20:56;8.00;;;4.38;;
59052;SDS011;44843;44.728;10.396;2023-07-20T08:23:21;10.90;;;4.57;;
59052;SDS011;44843;44.728;10.396;2023-07-20T08:25:47;10.70;;;3.95;;
59052;SDS011;44843;44.728;10.396;2023-07-20T08:28:13;15.40;;;4.45;;
59052;SDS011;44843;44.728;10.396;2023-07-20T08:30:40;8.55;;;4.15;;
59052;SDS011;44843;44.728;10.396;2023-07-20T08:33:06;13.60;;;3.50;;
59052;SDS011;44843;44.728;10.396;2023-07-20T08:35:32;5.85;;;3.92;;
59052;SDS011;44843;44.728;10.396;2023-07-20T08:37:57;10.50;;;4.50;;
59052;SDS011;44843;44.728;10.396;2023-07-20T08:40:22;11.18;;;3.97;;
59052;SDS011;44843;44.728;10.396;2023-07-20T08:42:48;7.47;;;3.75;;
59052;SDS011;44843;44.728;10.396;2023-07-20T08:45:14;6.15;;;3.85;;
59052;SDS011;44843;44.728;10.396;2023-07-20T08:47:42;10.85;;;4.00;;
59052;SDS011;44843;44.728;10.396;2023-07-20T08:50:10;8.43;;;3.75;;
59052;SDS011;44843;44.728;10.396;2023-07-20T08:52:37;9.38;;;5.40;;
59052;SDS011;44843;44.728;10.396;2023-07-20T08:55:03;10.05;;;4.18;;
59052;SDS011;44843;44.728;10.396;2023-07-20T08:57:29;10.75;;;5.22;;
59052;SDS011;44843;44.728;10.396;2023-07-20T08:59:57;6.03;;;3.80;;
59052;SDS011;44843;44.728;10.396;2023-07-20T09:02:25;7.85;;;4.63;;
59052;SDS011;44843;44.728;10.396;2023-07-20T09:04:52;7.68;;;4.32;;
59052;SDS011;44843;44.728;10.396;2023-07-20T09:07:17;11.88;;;4.25;;
59052;SDS011;44843;44.728;10.396;2023-07-20T09:09:45;8.60;;;3.85;;
59052;SDS011;44843;44.728;10.396;2023-07-20T09:12:14;7.47;;;3.72;;
59052;SDS011;44843;44.728;10.396;2023-07-20T09:14:42;7.75;;;3.75;;
59052;SDS011;44843;44.728;10.396;2023-07-20T09:17:14;7.60;;;4.68;;
59052;SDS011;44843;44.728;10.396;2023-07-20T09:19:46;11.10;;;4.13;;
59052;SDS011;44843;44.728;10.396;2023-07-20T09:22:14;7.53;;;3.50;;
59052;SDS011;44843;44.728;10.396;2023-07-20T09:24:40;6.50;;;3.85;;
59052;SDS011;44843;44.728;10.396;2023-07-20T09:27:06;10.02;;;3.70;;
59052;SDS011;44843;44.728;10.396;2023-07-20T09:29:32;8.68;;;4.35;;
59052;SDS011;44843;44.728;10.396;2023-07-20T09:32:01;10.82;;;4.00;;
59052;SDS011;44843;44.728;10.396;2023-07-20T09:34:29;5.70;;;3.40;;
59052;SDS011;44843;44.728;10.396;2023-07-20T09:36:58;11.73;;;5.45;;
59052;SDS011;44843;44.728;10.396;2023-07-20T09:39:24;11.05;;;3.78;;
59052;SDS011;44843;44.728;10.396;2023-07-20T09:41:50;6.90;;;3.67;;
59052;SDS011;44843;44.728;10.396;2023-07-20T09:44:16;9.02;;;3.53;;
59052;SDS011;44843;44.728;10.396;2023-07-20T09:46:43;7.05;;;3.95;;
59052;SDS011;44843;44.728;10.396;2023-07-20T09:49:11;9.13;;;3.72;;
59052;SDS011;44843;44.728;10.396;2023-07-20T09:51:37;7.97;;;4.20;;
59052;SDS011;44843;44.728;10.396;2023-07-20T09:54:03;6.80;;;3.85;;
59052;SDS011;44843;44.728;10.396;2023-07-20T09:56:29;5.40;;;3.35;;
59052;SDS011;44843;44.728;10.396;2023-07-20T09:58:55;8.77;;;3.67;;
59052;SDS011;44843;44.728;10.396;2023-07-20T10:01:21;6.22;;;3.50;;
59052;SDS011;44843;44.728;10.396;2023-07-20T10:03:50;11.50;;;4.30;;
59052;SDS011;44843;44.728;10.396;2023-07-20T10:06:20;8.95;;;3.85;;
59052;SDS011;44843;44.728;10.396;2023-07-20T10:08:48;6.22;;;3.97;;
59052;SDS011;44843;44.728;10.396;2023-07-20T10:11:17;4.25;;;3.83;;
59052;SDS011;44843;44.728;10.396;2023-07-20T10:13:44;7.40;;;3.65;;
59052;SDS011;44843;44.728;10.396;2023-07-20T10:16:12;8.30;;;3.47;;
59052;SDS011;44843;44.728;10.396;2023-07-20T10:19:07;7.10;;;3.58;;
59052;SDS011;44843;44.728;10.396;2023-07-20T10:21:33;5.93;;;3.38;;
59052;SDS011;44843;44.728;10.396;2023-07-20T10:24:02;12.95;;;4.18;;
59052;SDS011;44843;44.728;10.396;2023-07-20T10:26:29;7.28;;;3.28;;
59052;SDS011;44843;44.728;10.396;2023-07-20T10:28:54;7.90;;;4.18;;
59052;SDS011;44843;44.728;10.396;2023-07-20T10:31:20;11.48;;;4.25;;
59052;SDS011;44843;44.728;10.396;2023-07-20T10:33:48;7.93;;;3.85;;
59052;SDS011;44843;44.728;10.396;2023-07-20T10:36:15;10.15;;;3.72;;
59052;SDS011;44843;44.728;10.396;2023-07-20T10:43:49;5.93;;;3.38;;
59052;SDS011;44843;44.728;10.396;2023-07-20T10:46:32;8.93;;;4.28;;
59052;SDS011;44843;44.728;10.396;2023-07-20T10:49:07;9.43;;;4.40;;
59052;SDS011;44843;44.728;10.396;2023-07-20T10:51:43;10.95;;;4.40;;
59052;SDS011;44843;44.728;10.396;2023-07-20T10:56:41;8.32;;;3.60;;
59052;SDS011;44843;44.728;10.396;2023-07-20T10:59:36;8.45;;;3.95;;
59052;SDS011;44843;44.728;10.396;2023-07-20T11:02:06;6.88;;;3.75;;
59052;SDS011;44843;44.728;10.396;2023-07-20T11:04:42;12.98;;;4.00;;
59052;SDS011;44843;44.728;10.396;2023-07-20T11:07:08;7.85;;;3.85;;
59052;SDS011;44843;44.728;10.396;2023-07-20T11:09:34;11.13;;;3.40;;
59052;SDS011;44843;44.728;10.396;2023-07-20T11:12:14;7.85;;;4.65;;
59052;SDS011;44843;44.728;10.396;2023-07-20T11:14:41;9.20;;;3.72;;
59052;SDS011;44843;44.728;10.396;2023-07-20T11:17:11;7.65;;;3.80;;
59052;SDS011;44843;44.728;10.396;2023-07-20T11:19:40;11.90;;;3.97;;
59052;SDS011;44843;44.728;10.396;2023-07-20T11:22:06;6.95;;;3.97;;
59052;SDS011;44843;44.728;10.396;2023-07-20T11:24:33;10.48;;;4.40;;
59052;SDS011;44843;44.728;10.396;2023-07-20T11:26:58;10.07;;;3.47;;
59052;SDS011;44843;44.728;10.396;2023-07-20T11:29:26;10.90;;;4.03;;
59052;SDS011;44843;44.728;10.396;2023-07-20T11:31:51;8.75;;;3.63;;
59052;SDS011;44843;44.728;10.396;2023-07-20T11:34:17;8.20;;;4.05;;
59052;SDS011;44843;44.728;10.396;2023-07-20T11:36:45;8.00;;;4.68;;
59052;SDS011;44843;44.728;10.396;2023-07-20T11:39:13;11.52;;;4.22;;
59052;SDS011;44843;44.728;10.396;2023-07-20T11:41:43;5.45;;;3.67;;
59052;SDS011;44843;44.728;10.396;2023-07-20T11:44:11;5.95;;;3.92;;
59052;SDS011;44843;44.728;10.396;2023-07-20T11:46:38;13.95;;;5.45;;
59052;SDS011;44843;44.728;10.396;2023-07-20T11:49:04;9.48;;;3.78;;
59052;SDS011;44843;44.728;10.396;2023-07-20T11:51:30;10.32;;;3.88;;
59052;SDS011;44843;44.728;10.396;2023-07-20T11:53:57;8.57;;;4.30;;
59052;SDS011;44843;44.728;10.396;2023-07-20T11:56:25;7.05;;;3.58;;
59052;SDS011;44843;44.728;10.396;2023-07-20T11:58:54;7.57;;;3.65;;
59052;SDS011;44843;44.728;10.396;2023-07-20T12:01:22;9.63;;;4.20;;
59052;SDS011;44843;44.728;10.396;2023-07-20T12:03:48;10.55;;;4.30;;
59052;SDS011;44843;44.728;10.396;2023-07-20T12:06:14;8.48;;;4.50;;
59052;SDS011;44843;44.728;10.396;2023-07-20T12:08:43;13.15;;;4.75;;
59052;SDS011;44843;44.728;10.396;2023-07-20T12:11:10;10.50;;;3.50;;
59052;SDS011;44843;44.728;10.396;2023-07-20T12:13:39;13.88;;;4.72;;
59052;SDS011;44843;44.728;10.396;2023-07-20T12:16:15;10.32;;;4.43;;
59052;SDS011;44843;44.728;10.396;2023-07-20T12:18:42;10.63;;;4.15;;
59052;SDS011;44843;44.728;10.396;2023-07-20T12:21:08;8.85;;;4.20;;
59052;SDS011;44843;44.728;10.396;2023-07-20T12:23:35;9.15;;;4.28;;
59052;SDS011;44843;44.728;10.396;2023-07-20T12:26:02;11.25;;;3.90;;
59052;SDS011;44843;44.728;10.396;2023-07-20T12:28:28;8.10;;;4.35;;
59052;SDS011;44843;44.728;10.396;2023-07-20T12:30:54;8.30;;;4.47;;
59052;SDS011;44843;44.728;10.396;2023-07-20T12:33:22;15.27;;;5.18;;
59052;SDS011;44843;44.728;10.396;2023-07-20T12:35:48;9.27;;;3.75;;
59052;SDS011;44843;44.728;10.396;2023-07-20T12:38:14;6.43;;;3.42;;
59052;SDS011;44843;44.728;10.396;2023-07-20T12:40:41;6.93;;;3.60;;
59052;SDS011;44843;44.728;10.396;2023-07-20T12:43:06;8.65;;;4.45;;
59052;SDS011;44843;44.728;10.396;2023-07-20T12:45:32;7.00;;;4.10;;
59052;SDS011;44843;44.728;10.396;2023-07-20T12:47:58;8.93;;;4.43;;
59052;SDS011;44843;44.728;10.396;2023-07-20T12:50:24;11.75;;;4.68;;
59052;SDS011;44843;44.728;10.396;2023-07-20T12:52:49;11.07;;;4.18;;
59052;SDS011;44843;44.728;10.396;2023-07-20T12:55:15;8.15;;;4.53;;
59052;SDS011;44843;44.728;10.396;2023-07-20T12:57:41;11.60;;;4.30;;
59052;SDS011;44843;44.728;10.396;2023-07-20T13:00:08;10.25;;;4.18;;
59052;SDS011;44843;44.728;10.396;2023-07-20T13:02:35;9.63;;;3.90;;
59052;SDS011;44843;44.728;10.396;2023-07-20T13:05:01;8.88;;;4.10;;
59052;SDS011;44843;44.728;10.396;2023-07-20T13:07:31;10.77;;;4.28;;
59052;SDS011;44843;44.728;10.396;2023-07-20T13:10:02;8.07;;;4.22;;
59052;SDS011;44843;44.728;10.396;2023-07-20T13:12:29;11.55;;;4.32;;
59052;SDS011;44843;44.728;10.396;2023-07-20T13:14:55;6.60;;;3.88;;
59052;SDS011;44843;44.728;10.396;2023-07-20T13:17:21;6.53;;;3.85;;
59052;SDS011;44843;44.728;10.396;2023-07-20T13:19:50;7.18;;;3.85;;
59052;SDS011;44843;44.728;10.396;2023-07-20T13:22:15;8.95;;;4.55;;
59052;SDS011;44843;44.728;10.396;2023-07-20T13:24:41;7.43;;;3.58;;
59052;SDS011;44843;44.728;10.396;2023-07-20T13:27:06;7.18;;;4.10;;
59052;SDS011;44843;44.728;10.396;2023-07-20T13:29:32;6.35;;;3.83;;
59052;SDS011;44843;44.728;10.396;2023-07-20T13:31:58;7.65;;;4.57;;
59052;SDS011;44843;44.728;10.396;2023-07-20T13:34:25;7.20;;;4.40;;
59052;SDS011;44843;44.728;10.396;2023-07-20T13:36:50;8.35;;;4.10;;
59052;SDS011;44843;44.728;10.396;2023-07-20T13:39:16;10.55;;;4.38;;
59052;SDS011;44843;44.728;10.396;2023-07-20T13:41:41;7.97;;;4.25;;
59052;SDS011;44843;44.728;10.396;2023-07-20T13:44:07;9.73;;;4.32;;
59052;SDS011;44843;44.728;10.396;2023-07-20T13:46:32;11.55;;;4.45;;
59052;SDS011;44843;44.728;10.396;2023-07-20T13:48:58;7.57;;;4.30;;
59052;SDS011;44843;44.728;10.396;2023-07-20T13:51:23;8.05;;;4.40;;
59052;SDS011;44843;44.728;10.396;2023-07-20T13:53:48;6.82;;;4.00;;
59052;SDS011;44843;44.728;10.396;2023-07-20T13:56:14;11.07;;;4.95;;
59052;SDS011;44843;44.728;10.396;2023-07-20T13:58:39;11.75;;;4.70;;
59052;SDS011;44843;44.728;10.396;2023-07-20T14:01:04;12.15;;;4.28;;
59052;SDS011;44843;44.728;10.396;2023-07-20T14:03:30;12.32;;;4.80;;
59052;SDS011;44843;44.728;10.396;2023-07-20T14:05:55;10.35;;;4.68;;
59052;SDS011;44843;44.728;10.396;2023-07-20T14:08:21;11.02;;;4.45;;
59052;SDS011;44843;44.728;10.396;2023-07-20T14:10:47;7.60;;;4.28;;
59052;SDS011;44843;44.728;10.396;2023-07-20T14:13:13;12.40;;;4.43;;
59052;SDS011;44843;44.728;10.396;2023-07-20T14:15:39;8.25;;;4.28;;
59052;SDS011;44843;44.728;10.396;2023-07-20T14:18:04;10.13;;;4.80;;
59052;SDS011;44843;44.728;10.396;2023-07-20T14:20:30;6.25;;;4.03;;
59052;SDS011;44843;44.728;10.396;2023-07-20T14:22:55;8.48;;;4.07;;
59052;SDS011;44843;44.728;10.396;2023-07-20T14:25:21;9.50;;;4.90;;
59052;SDS011;44843;44.728;10.396;2023-07-20T14:27:46;12.48;;;4.72;;
59052;SDS011;44843;44.728;10.396;2023-07-20T14:30:11;9.60;;;5.30;;
59052;SDS011;44843;44.728;10.396;2023-07-20T14:32:38;10.50;;;4.82;;
59052;SDS011;44843;44.728;10.396;2023-07-20T14:35:03;10.32;;;4.95;;
59052;SDS011;44843;44.728;10.396;2023-07-20T14:37:29;10.73;;;4.63;;
59052;SDS011;44843;44.728;10.396;2023-07-20T14:39:55;8.80;;;4.47;;
59052;SDS011;44843;44.728;10.396;2023-07-20T14:42:20;10.18;;;5.40;;
59052;SDS011;44843;44.728;10.396;2023-07-20T14:44:45;11.40;;;6.32;;
59052;SDS011;44843;44.728;10.396;2023-07-20T14:47:11;8.73;;;5.05;;
59052;SDS011;44843;44.728;10.396;2023-07-20T14:49:36;9.25;;;5.40;;
59052;SDS011;44843;44.728;10.396;2023-07-20T14:52:02;6.97;;;4.45;;